Map

Track Data

SID SEASON NUMBER BASIN SUBBASIN NAME ISO_TIME NATURE LAT LON WMO_WIND WMO_PRES WMO_AGENCY TRACK_TYPE DIST2LAND LANDFALL IFLAG USA_AGENCY USA_ATCF_ID USA_LAT USA_LON USA_RECORD USA_STATUS USA_WIND USA_PRES USA_SSHS USA_R34_NE USA_R34_SE USA_R34_SW USA_R34_NW USA_R50_NE USA_R50_SE USA_R50_SW USA_R50_NW USA_R64_NE USA_R64_SE USA_R64_SW USA_R64_NW USA_POCI USA_ROCI USA_RMW USA_EYE TOKYO_LAT TOKYO_LON TOKYO_GRADE TOKYO_WIND TOKYO_PRES TOKYO_R50_DIR TOKYO_R50_LONG TOKYO_R50_SHORT TOKYO_R30_DIR TOKYO_R30_LONG TOKYO_R30_SHORT TOKYO_LAND CMA_LAT CMA_LON CMA_CAT CMA_WIND CMA_PRES HKO_LAT HKO_LON HKO_CAT HKO_WIND HKO_PRES NEWDELHI_LAT NEWDELHI_LON NEWDELHI_GRADE NEWDELHI_WIND NEWDELHI_PRES NEWDELHI_CI NEWDELHI_DP NEWDELHI_POCI REUNION_LAT REUNION_LON REUNION_TYPE REUNION_WIND REUNION_PRES REUNION_TNUM REUNION_CI REUNION_RMW REUNION_R34_NE REUNION_R34_SE REUNION_R34_SW REUNION_R34_NW REUNION_R50_NE REUNION_R50_SE REUNION_R50_SW REUNION_R50_NW REUNION_R64_NE REUNION_R64_SE REUNION_R64_SW REUNION_R64_NW BOM_LAT BOM_LON BOM_TYPE BOM_WIND BOM_PRES BOM_TNUM BOM_CI BOM_RMW BOM_R34_NE BOM_R34_SE BOM_R34_SW BOM_R34_NW BOM_R50_NE BOM_R50_SE BOM_R50_SW BOM_R50_NW BOM_R64_NE BOM_R64_SE BOM_R64_SW BOM_R64_NW BOM_ROCI BOM_POCI BOM_EYE BOM_POS_METHOD BOM_PRES_METHOD NADI_LAT NADI_LON NADI_CAT NADI_WIND NADI_PRES WELLINGTON_LAT WELLINGTON_LON WELLINGTON_WIND WELLINGTON_PRES DS824_LAT DS824_LON DS824_STAGE DS824_WIND DS824_PRES TD9636_LAT TD9636_LON TD9636_STAGE TD9636_WIND TD9636_PRES TD9635_LAT TD9635_LON TD9635_WIND TD9635_PRES TD9635_ROCI NEUMANN_LAT NEUMANN_LON NEUMANN_CLASS NEUMANN_WIND NEUMANN_PRES MLC_LAT MLC_LON MLC_CLASS MLC_WIND MLC_PRES USA_GUST BOM_GUST BOM_GUST_PER REUNION_GUST REUNION_GUST_PER USA_SEAHGT USA_SEARAD_NE USA_SEARAD_SE USA_SEARAD_SW USA_SEARAD_NW STORM_SPEED STORM_DIR
2012297N11067 2012 80 NI AS MURJAN 2012-10-22 15:00:00 NR 11.0000 66.5000 25 1004 newdelhi main 923 923 ____O_________ -1 11.0000 66.5000 D 25 1004 1.50000 3 10 279
2012297N11067 2012 80 NI AS MURJAN 2012-10-22 18:00:00 NR 11.0740 66.0205 main 965 965 O___P_________ jtwc_io IO012012 11.3000 65.4000 DB 15 1008 -3 1010 150 40 10.9610 66.3307 D 25 1004 3 9 281
2012297N11067 2012 80 NI AS MURJAN 2012-10-22 21:00:00 NR 11.1660 65.6090 25 1004 newdelhi main 999 999 P___O_________ IO012012 11.4151 65.0226 DB 17 1007 -3 1010 150 40 11.0000 66.0000 D 25 1004 1.50000 3 10 284
2012297N11067 2012 80 NI AS MURJAN 2012-10-23 00:00:00 NR 11.3072 65.0596 main 1043 1043 O___P_________ jtwc_io IO012012 11.5000 64.6000 DB 20 1007 -3 1010 150 40 11.1626 65.4043 D 25 1003 3 12 283
2012297N11067 2012 80 NI AS MURJAN 2012-10-23 03:00:00 NR 11.4483 64.3846 main 1085 1019 P___P_________ IO012012 11.5299 64.0950 DB 20 1007 -3 11.3668 64.6742 D 25 1003 3 13 279
2012297N11067 2012 80 NI AS MURJAN 2012-10-23 06:00:00 NR 11.5000 63.7500 25 1003 newdelhi main 1019 954 O___O_________ jtwc_io IO012012 11.5000 63.5000 DB 20 1007 -3 11.5000 64.0000 D 25 1003 1.50000 3 12 271
2012297N11067 2012 80 NI AS MURJAN 2012-10-23 09:00:00 NR 11.4650 63.1650 30 1002 newdelhi main 954 870 P___O_________ IO012012 11.4299 62.8300 DB 22 1005 -3 11.5000 63.5000 DD 30 1002 2.00000 4 14 265
2012297N11067 2012 80 NI AS MURJAN 2012-10-23 12:00:00 NR 11.3708 62.3653 main 870 778 O___P_________ jtwc_io IO012012 11.3000 62.1000 DB 25 1004 -3 11.4415 62.6307 DD 30 1002 4 17 262
2012297N11067 2012 80 NI AS MURJAN 2012-10-23 15:00:00 NR 11.2167 61.4121 main 767 674 P___P_________ IO012012 11.1074 61.3574 DB 27 1002 -3 11.3261 61.4668 DD 30 1002 4 20 260
2012297N11067 2012 80 NI AS MURJAN 2012-10-23 18:00:00 NR 11.0360 60.3973 main 667 576 O___P_________ jtwc_io IO012012 10.9000 60.6000 DB 30 1000 -3 1009 170 45 11.1719 60.1947 DD 30 1002 4 20 260
2012297N11067 2012 80 NI AS MURJAN 2012-10-23 21:00:00 NR 10.8637 59.4250 30 1002 newdelhi main 566 494 P___O_________ IO012012 10.7273 59.8500 DB 30 1000 -3 1008 170 42 11.0000 59.0000 DD 30 1002 2.00000 4 18 259
2012297N11067 2012 80 NI AS MURJAN 2012-10-24 00:00:00 NR 10.7030 58.5704 main 494 423 O___P_________ jtwc_io IO012012 10.6000 59.1000 DB 30 1000 -3 1008 170 40 10.8060 58.0408 DD 31 1001 4 17 260
2012297N11067 2012 80 NI AS MURJAN 2012-10-24 03:00:00 NR 10.5749 57.7665 main 423 368 P___P_________ IO012012 10.5274 58.3351 DB 30 1000 -3 1008 170 40 10.6224 57.1979 DD 33 1000 5 15 262
2012297N11067 2012 80 NI AS MURJAN 2012-10-24 06:00:00 NR 10.5000 57.0500 35 1000 newdelhi main 368 320 O___O_________ jtwc_io IO012012 10.5000 57.6000 DB 30 1000 -3 1008 170 40 10.5000 56.5000 CS 35 1000 2.50000 6 13 266
2012297N11067 2012 80 NI AS MURJAN 2012-10-24 09:00:00 NR 10.4897 56.4677 main 320 280 P___P_________ IO012012 10.4998 56.9351 DB 32 998 -3 1008 170 40 10.4797 56.0002 CS 37 999 7 11 270
2012297N11067 2012 80 NI AS MURJAN 2012-10-24 12:00:00 TS 10.5000 55.9000 40 998 newdelhi main 280 240 O___O_________ jtwc_io IO012012 10.5000 56.3000 TS 35 996 0 1008 170 40 10.5000 55.5000 CS 40 998 2.50000 8 13 270
2012297N11067 2012 80 NI AS MURJAN 2012-10-24 15:00:00 TS 10.4826 55.1915 main 240 208 P___P_________ IO012012 10.4649 55.6500 TS 35 996 0 1008 170 40 10.5003 54.7330 CS 37 999 7 14 268
2012297N11067 2012 80 NI AS MURJAN 2012-10-24 18:00:00 TS 10.4500 54.5000 35 1000 newdelhi main 208 202 O___O_________ jtwc_io IO012012 10.4000 55.0000 TS 35 996 0 1008 170 40 10.5000 54.0000 CS 35 1000 2.50000 6 13 267
2012297N11067 2012 80 NI AS MURJAN 2012-10-24 21:00:00 TS 10.4075 53.9213 35 1000 newdelhi main 212 212 P___O_________ IO012012 10.3149 54.3425 TS 35 996 0 1007 165 40 10.5000 53.5000 CS 35 1000 2.50000 6 12 253
2012297N11067 2012 80 NI AS MURJAN 2012-10-25 00:00:00 TS 10.1000 53.3500 35 1000 newdelhi main 221 153 O___O_________ jtwc_io IO012012 10.2000 53.7000 TS 35 996 0 1007 160 40 10.0000 53.0000 CS 35 1000 2.50000 6 13 246
2012297N11067 2012 80 NI AS MURJAN 2012-10-25 03:00:00 TS 9.86120 52.6798 main 153 102 P___P_________ IO012012 10.0574 53.0925 TS 35 996 0 1007 165 40 9.66505 52.2670 CS 35 1000 6 14 253
2012297N11067 2012 80 NI AS MURJAN 2012-10-25 06:00:00 TS 9.70000 52.0000 35 1000 newdelhi main 102 76 O___O_________ jtwc_io IO012012 9.90000 52.5000 TS 35 996 0 1007 170 40 9.50000 51.5000 CS 35 1000 2.50000 6 13 258
2012297N11067 2012 80 NI AS MURJAN 2012-10-25 09:00:00 TS 9.59857 51.4314 main 65 10 P___P_________ IO012012 9.73490 51.9000 TS 35 996 0 1007 170 40 9.46224 50.9627 CS 32 1000 5 11 262
2012297N11067 2012 80 NI AS MURJAN 2012-10-25 12:00:00 TS 9.55000 50.9000 30 1001 newdelhi main 10 0 O___O_________ jtwc_io IO012012 9.60000 51.3000 TS 35 996 0 1007 170 40 9.50000 50.5000 DD 30 1001 0.00000 4 9 266
2012297N11067 2012 80 NI AS MURJAN 2012-10-25 15:00:00 TS 9.52797 50.4953 main 0 0 P___P_________ IO012012 9.54927 50.7902 TS 32 998 -1 1007 170 35 9.49957 50.1022 DD 27 1001 3 10 267
2012297N11067 2012 80 NI AS MURJAN 2012-10-25 18:00:00 TS 9.50000 49.8600 25 1002 newdelhi main 0 0 O___O_________ jtwc_io IO012012 9.50000 50.1000 TD 30 1000 -1 1008 170 30 9.50000 49.5000 D 25 1002 0.00000 3 16 266
2012297N11067 2012 80 NI AS MURJAN 2012-10-25 21:00:00 TS 9.41766 48.8464 25 1002 newdelhi main 0 0 P___O_________ IO012012 9.37649 49.0196 TD 27 1002 -1 1007 170 30 9.50000 48.5000 D 25 1002 0.00000 3 22 262
2012297N11067 2012 80 NI AS MURJAN 2012-10-26 00:00:00 TS 9.20000 47.7000 main 0 O_____________ jtwc_io IO012012 9.20000 47.7000 TD 25 1004 -1 1007 170 30 23 259

About IBTrACS Database

This database is a web-friendly format of International Best Track Archive for Climate Stewardship (IBTrACS), a global best track data archive curated by NOAA dating back to 1842.

Updated: 2021-12-01